Tuesday, October 21, 2014
12:05 UTC
  |  Log In   |  Register Free
Airport Search:

Oroville Municipal Airport
(KOVE)

Oroville Municipal Airport Diagram
No Airport Diagram Available

FAA data valid effective September 18, 2014 - November 13, 2014 (unless otherwise noted).

 
 
 
 
 
 
 
 
 
 
 
 
 
 

Current Aviation Weather for Oroville Municipal Airport (KOVE)

The most recent METAR observation for KOVE was updated at: 1118
METAR Summary (Translated METAR)
KOVE
211053Z AUTO 10006KT 10SM CLR 12/08 A3008 RMK AO2 SLP189 T01170078 $
KCIC
211055Z AUTO 06003KT 10SM SCT065 12/07 A3009 RMK AO1
(21.4 nm NW from KOVE)
KBAB
211058Z AUTO 09005KT 10SM CLR 11/09 A3006 RMK AO2 SLP256 T01080089 $
(22.8 nm SE from KOVE)
TAF Summary (Translated TAF)
KBAB
(22.8 nm SE from KOVE)
2111/2217 VRB06KT 9999 SKC QNH2970INS TX19/2121Z TN10/2212Z
  Airport Weather Conditions for KOVE

 Current Weather at OVE
53° F
Fair
East winds at 6.9 mph
OVE NOAA Radar

Pressure: 30.08 in
Humidity: 77%
Wind: East at 6.9 MPH (6 KT)
Dew Point: 46.0°F
Visibility: 10.00 mi


Airport Weather Forecast for KOVE

Translated METAR and TAF for KOVE
Translated METAR for KOVE (1200 UTC 21 October 2014)
found at http://aviationweather.gov/adds/metars/
 
METAR text: KOVE 211153Z AUTO 08003KT 10SM CLR 12/08 A3009 RMK AO2 SLP190 70008 T01170083 10139 20117 51008 $
Conditions at: KOVE (OROVILLE , CA, US) observed 1153 UTC 21 October 2014
Temperature: 11.7°C (53°F)
Dewpoint: 8.3°C (47°F) [RH = 80%]
Pressure (altimeter): 30.09 inches Hg (1019.0 mb)
[Sea-level pressure: 1019.0 mb]
Winds: from the E (80 degrees) at 3 MPH (3 knots; 1.6 m/s)
Visibility: 10 or more miles (16+ km)
Ceiling: at least 12,000 feet AGL
Clouds: sky clear below 12,000 feet AGL
Weather:
SOME DATA ABOVE MAY BE INACCURATE!!!
"$" is an indication the sensor requires maintenance
Translated TAF for KOVE

There is no translated TAF available for this airport

Find All Airport Services Find A Hotel Find A Rental Car Find A Golf Course Find A Restaurant $100 Hamburger



FBO's on the Field
FBO Company Facility Photos Services Transportation Aviation Fuel Prices: Prices include tax
Catering Weather Repair Courtesy Rental Type 100LL JetA JetA+ MOGAS 8087
 
Oroville Municipal Airport

This FBO has not yet been rated
FS:Epic
Last Updated: Oct-20
Login to update fuel prices
SS:
Contact Oroville Municipal AirportMore FBO Information
 
Add another FBO Facility Photos Catering Weather Repair Courtesy Rental Type 100LL JetA JetA+ MOGAS 8087
Services Transportation Aviation Fuel Prices: Prices include tax


model-print
model-print
model-print
model-print